Terminal Aerodrome Forecast
Issued by NWS

Current Version | Previous Version | Text Only | Print | Product List | Glossary On
Versions: 1 2 3 4 5 6 7 8 9 10 11 12 13
430
FTUS46 KHNX 220520
TAFVIS
TAF
KVIS 220520Z 2206/2306 VRB03KT 6SM HZ SKC
     FM220800 00000KT 3SM BR SKC
     FM221200 00000KT 2SM BR SKC
      TEMPO 2212/2216 1SM BR
     FM221700 VRB04KT 3SM HZ SKC
     FM221900 VRB03KT 6SM HZ SKC=

USA.gov is the U.S. government's official web portal to all federal, state and local government web resources and services.